Time;durP1;ratioP1;P1;durP2;ratioP2;P2;SDS_P1;SDS_P2;PMS_P1;PMS_P2;Temp;Humidity;BMP_temperature;BMP_pressure;BME280_temperature;BME280_humidity;BME280_pressure;Samples;Min_cycle;Max_cycle;Signal;HPM_P1;HPM_P2
2022/07/24 00:01:01;;;;;;;10.85;4.90;;;17.90;99.90;;;;;;5094077;28;20043;-91
2022/07/24 00:03:27;;;;;;;9.38;5.88;;;17.90;99.90;;;;;;5093129;28;20035;-91
2022/07/24 00:05:53;;;;;;;8.35;5.43;;;17.90;99.90;;;;;;5085688;28;20086;-92
2022/07/24 00:08:18;;;;;;;8.60;4.85;;;17.90;99.90;;;;;;5100608;28;20498;-91
2022/07/24 00:10:44;;;;;;;8.57;5.20;;;17.90;99.90;;;;;;5096884;28;20424;-91
2022/07/24 00:13:09;;;;;;;8.93;5.10;;;17.80;99.90;;;;;;5091123;28;20059;-91
2022/07/24 00:15:35;;;;;;;9.63;5.20;;;17.80;99.90;;;;;;5074051;28;20108;-91
2022/07/24 00:18:01;;;;;;;8.05;4.80;;;17.80;99.90;;;;;;5089375;28;20047;-91
2022/07/24 00:20:26;;;;;;;12.13;5.55;;;17.80;99.90;;;;;;5089828;28;20047;-91
2022/07/24 00:22:52;;;;;;;7.57;5.13;;;17.80;99.90;;;;;;5090605;28;20032;-92
2022/07/24 00:25:17;;;;;;;9.30;5.18;;;17.80;99.90;;;;;;5072686;28;20040;-91
2022/07/24 00:27:43;;;;;;;8.20;5.20;;;17.80;99.90;;;;;;5091370;28;20088;-92
2022/07/24 00:30:09;;;;;;;7.90;5.10;;;17.80;99.90;;;;;;5072112;28;20509;-91
2022/07/24 00:32:35;;;;;;;7.70;5.22;;;17.80;99.90;;;;;;5090882;28;20130;-91
2022/07/24 00:35:00;;;;;;;9.60;5.60;;;17.80;99.90;;;;;;5072404;28;20772;-92
2022/07/24 00:37:27;;;;;;;8.85;5.40;;;17.80;99.90;;;;;;5072974;28;20036;-92
2022/07/24 00:39:52;;;;;;;9.05;5.50;;;17.70;99.90;;;;;;5073273;28;20058;-91
2022/07/24 00:42:18;;;;;;;8.07;4.85;;;17.70;99.90;;;;;;5072173;28;20123;-92
2022/07/24 00:44:44;;;;;;;9.18;5.50;;;17.70;99.90;;;;;;5071864;28;20412;-91
2022/07/24 00:47:09;;;;;;;10.05;5.20;;;17.70;99.90;;;;;;5072445;28;20044;-92
2022/07/24 00:49:35;;;;;;;8.25;5.13;;;17.70;99.90;;;;;;5089866;28;20059;-91
2022/07/24 00:52:00;;;;;;;9.25;5.30;;;17.60;99.90;;;;;;5089687;28;20036;-92
2022/07/24 00:54:26;;;;;;;8.57;4.88;;;17.60;99.90;;;;;;5090480;28;20093;-91
2022/07/24 00:56:54;;;;;;;9.13;5.32;;;17.60;99.90;;;;;;5073493;28;20083;-92
2022/07/24 00:59:20;;;;;;;8.63;5.28;;;17.60;99.90;;;;;;5088991;28;20082;-92
2022/07/24 01:01:47;;;;;;;8.75;5.38;;;17.60;99.90;;;;;;5089616;28;20102;-91
2022/07/24 01:04:12;;;;;;;8.73;5.00;;;17.60;99.90;;;;;;5089820;28;20057;-91
2022/07/24 01:06:41;;;;;;;9.70;5.70;;;17.60;99.90;;;;;;5072466;28;20494;-91
2022/07/24 01:09:07;;;;;;;9.57;5.50;;;17.50;99.90;;;;;;5072375;28;20050;-91
2022/07/24 01:11:33;;;;;;;9.85;5.72;;;17.50;99.90;;;;;;5090472;28;20114;-92
2022/07/24 01:13:59;;;;;;;10.13;5.65;;;17.50;99.90;;;;;;5076615;28;20091;-92
2022/07/24 01:16:24;;;;;;;9.27;5.20;;;17.50;99.90;;;;;;5092914;28;20090;-91
2022/07/24 01:18:50;;;;;;;8.43;5.72;;;17.50;99.90;;;;;;5076352;28;20428;-91
2022/07/24 01:21:16;;;;;;;8.88;5.32;;;17.40;99.90;;;;;;5076163;28;20040;-91
2022/07/24 01:23:41;;;;;;;9.63;5.88;;;17.40;99.90;;;;;;5092751;28;20036;-91
2022/07/24 01:26:08;;;;;;;8.82;5.82;;;17.40;99.90;;;;;;5076149;28;20536;-91
2022/07/24 01:28:34;;;;;;;9.70;5.97;;;17.40;99.90;;;;;;5092767;28;20429;-91
2022/07/24 01:31:00;;;;;;;9.98;6.00;;;17.30;99.90;;;;;;5074973;28;20042;-91
2022/07/24 01:33:25;;;;;;;9.77;6.00;;;17.30;99.90;;;;;;5093494;28;20486;-91
2022/07/24 01:35:52;;;;;;;8.80;5.68;;;17.30;99.90;;;;;;5092447;28;20129;-92
2022/07/24 01:38:18;;;;;;;8.65;6.03;;;17.30;99.90;;;;;;5076269;28;20047;-91
2022/07/24 01:40:45;;;;;;;10.18;6.13;;;17.30;99.90;;;;;;5091863;28;20098;-91
2022/07/24 01:43:10;;;;;;;9.73;6.20;;;17.20;99.90;;;;;;5092982;28;20036;-91
2022/07/24 01:45:36;;;;;;;12.05;6.35;;;17.20;99.90;;;;;;5092647;28;20455;-91
2022/07/24 01:48:03;;;;;;;9.02;6.25;;;17.20;99.90;;;;;;5075473;28;20075;-91
2022/07/24 01:50:29;;;;;;;9.40;6.20;;;17.20;99.90;;;;;;5075905;28;20401;-91
2022/07/24 01:52:55;;;;;;;9.23;6.50;;;17.20;99.90;;;;;;5092015;28;20042;-91
2022/07/24 01:55:21;;;;;;;9.80;6.47;;;17.20;99.90;;;;;;5075612;28;20405;-91
2022/07/24 01:57:48;;;;;;;9.88;6.80;;;17.20;99.90;;;;;;5075652;28;20350;-91
2022/07/24 02:00:14;;;;;;;10.77;6.90;;;17.10;99.90;;;;;;5092132;28;20032;-91
2022/07/24 02:02:42;;;;;;;10.45;6.93;;;17.10;99.90;;;;;;5092764;28;20540;-91
2022/07/24 02:05:08;;;;;;;10.02;6.22;;;17.10;99.90;;;;;;5091889;28;20036;-91
2022/07/24 02:07:34;;;;;;;9.98;6.57;;;17.10;99.90;;;;;;5075202;28;20043;-91
2022/07/24 02:10:00;;;;;;;9.82;6.63;;;17.10;99.90;;;;;;5074934;28;20488;-91
2022/07/24 02:12:26;;;;;;;9.82;6.50;;;17.10;99.90;;;;;;5090666;28;20111;-91
2022/07/24 02:14:51;;;;;;;10.82;6.72;;;17.00;99.90;;;;;;5075481;28;20044;-91
2022/07/24 02:17:17;;;;;;;9.80;6.95;;;17.00;99.90;;;;;;5091609;28;20043;-91
2022/07/24 02:19:42;;;;;;;9.93;6.88;;;17.00;99.90;;;;;;5091737;28;20039;-91
2022/07/24 02:22:08;;;;;;;10.23;6.72;;;17.00;99.90;;;;;;5091501;28;20157;-91
2022/07/24 02:24:33;;;;;;;9.40;6.45;;;17.00;99.90;;;;;;5091097;28;20040;-91
2022/07/24 02:26:59;;;;;;;9.40;6.38;;;17.00;99.90;;;;;;5092278;28;20046;-91
2022/07/24 02:29:25;;;;;;;8.88;6.45;;;17.00;99.90;;;;;;5092294;28;20412;-91
2022/07/24 02:31:50;;;;;;;10.93;6.75;;;17.00;99.90;;;;;;5093133;28;20051;-91
2022/07/24 02:34:16;;;;;;;10.88;7.30;;;17.00;99.90;;;;;;5091218;28;20151;-91
2022/07/24 02:36:42;;;;;;;9.20;6.95;;;17.00;99.90;;;;;;5091820;28;20040;-91
2022/07/24 02:39:08;;;;;;;9.77;6.80;;;17.00;99.90;;;;;;5091980;28;20040;-91
2022/07/24 02:41:34;;;;;;;9.77;6.60;;;16.90;99.90;;;;;;5091107;28;20043;-91
2022/07/24 02:43:59;;;;;;;8.43;5.90;;;16.90;99.90;;;;;;5091678;28;20489;-91
2022/07/24 02:46:25;;;;;;;10.25;7.03;;;17.00;99.90;;;;;;5090865;28;20700;-91
2022/07/24 02:48:50;;;;;;;9.70;6.68;;;16.90;99.90;;;;;;5091592;28;20401;-91
2022/07/24 02:51:16;;;;;;;11.98;7.00;;;16.90;99.90;;;;;;5074517;28;20040;-91
2022/07/24 02:53:42;;;;;;;9.60;6.88;;;16.90;99.90;;;;;;5090843;28;20043;-91
2022/07/24 02:56:08;;;;;;;9.95;6.63;;;16.90;99.90;;;;;;5091721;28;20051;-91
2022/07/24 02:58:34;;;;;;;9.18;7.05;;;16.90;99.90;;;;;;5090045;28;20040;-91
2022/07/24 03:00:59;;;;;;;9.55;6.80;;;16.90;99.90;;;;;;5074166;28;20078;-91
2022/07/24 03:03:25;;;;;;;9.32;7.15;;;16.90;99.90;;;;;;5090733;28;20516;-91
2022/07/24 03:05:51;;;;;;;9.20;6.45;;;16.90;99.90;;;;;;5090638;28;20035;-92
2022/07/24 03:08:16;;;;;;;8.98;6.80;;;16.90;99.90;;;;;;5091609;28;20032;-92
2022/07/24 03:10:42;;;;;;;8.90;6.57;;;16.80;99.90;;;;;;5090185;28;20496;-91
2022/07/24 03:13:08;;;;;;;10.30;7.30;;;16.90;99.90;;;;;;5090967;28;20040;-91
2022/07/24 03:15:34;;;;;;;8.50;6.68;;;16.80;99.90;;;;;;5090842;28;20075;-91
2022/07/24 03:17:59;;;;;;;10.20;6.85;;;16.80;99.90;;;;;;5073540;28;20050;-91
2022/07/24 03:20:27;;;;;;;10.75;7.22;;;16.80;99.90;;;;;;5073844;28;20043;-91
2022/07/24 03:22:53;;;;;;;10.30;6.70;;;16.80;99.90;;;;;;5090211;28;20459;-91
2022/07/24 03:25:19;;;;;;;10.68;6.68;;;16.80;99.90;;;;;;5090877;28;20035;-91
2022/07/24 03:27:46;;;;;;;9.77;6.85;;;16.80;99.90;;;;;;5090121;28;20036;-91
2022/07/24 03:30:12;;;;;;;9.25;6.20;;;16.80;99.90;;;;;;5073465;28;20040;-92
2022/07/24 03:32:38;;;;;;;10.32;6.70;;;16.80;99.90;;;;;;5090453;28;20042;-92
2022/07/24 03:35:04;;;;;;;9.65;6.30;;;16.80;99.90;;;;;;5072965;28;20075;-91
2022/07/24 03:37:29;;;;;;;9.35;6.60;;;16.80;99.90;;;;;;5073569;28;20068;-92
2022/07/24 03:39:55;;;;;;;9.77;6.78;;;16.70;99.90;;;;;;5090127;28;20035;-90
2022/07/24 03:42:21;;;;;;;9.63;6.35;;;16.70;99.90;;;;;;5073619;28;20538;-91
2022/07/24 03:44:46;;;;;;;10.48;6.72;;;16.70;99.90;;;;;;5090087;28;20556;-92
2022/07/24 03:47:12;;;;;;;10.77;7.35;;;16.70;99.90;;;;;;5090158;28;20405;-92
2022/07/24 03:49:37;;;;;;;11.93;7.22;;;16.70;99.90;;;;;;5090424;28;20047;-91
2022/07/24 03:52:03;;;;;;;9.20;6.75;;;16.70;99.90;;;;;;5073427;28;20039;-92
2022/07/24 03:54:29;;;;;;;9.63;6.50;;;16.70;99.90;;;;;;5089384;28;20545;-92
2022/07/24 03:56:55;;;;;;;11.15;7.18;;;16.70;99.90;;;;;;5073413;28;20130;-92
2022/07/24 03:59:21;;;;;;;10.93;6.15;;;16.70;99.90;;;;;;5072750;28;20098;-92
2022/07/24 04:01:46;;;;;;;9.20;6.40;;;16.70;99.90;;;;;;5073133;28;20044;-92
2022/07/24 04:04:12;;;;;;;10.35;7.05;;;16.70;99.90;;;;;;5090205;28;20048;-92
2022/07/24 04:06:38;;;;;;;11.05;7.43;;;16.70;99.90;;;;;;5089818;28;20047;-92
2022/07/24 04:09:04;;;;;;;9.43;5.32;;;16.70;99.90;;;;;;5089660;28;20524;-91
2022/07/24 04:11:30;;;;;;;10.95;6.90;;;16.70;99.90;;;;;;5089311;28;20046;-92
2022/07/24 04:13:56;;;;;;;10.02;6.57;;;16.70;99.90;;;;;;5072660;28;20071;-92
2022/07/24 04:16:21;;;;;;;10.80;6.63;;;16.70;99.90;;;;;;5089610;28;20120;-92
2022/07/24 04:18:47;;;;;;;9.40;6.85;;;16.70;99.90;;;;;;5090057;28;20032;-92
2022/07/24 04:21:13;;;;;;;8.90;6.43;;;16.70;99.90;;;;;;5089743;28;20048;-91
2022/07/24 04:23:39;;;;;;;10.07;6.47;;;16.80;99.90;;;;;;5089167;28;20047;-91
2022/07/24 04:26:04;;;;;;;10.15;6.65;;;16.80;99.90;;;;;;5073198;28;20036;-91
2022/07/24 04:28:30;;;;;;;10.15;6.47;;;16.80;99.90;;;;;;5090455;28;20140;-91
2022/07/24 04:30:56;;;;;;;9.98;6.75;;;16.80;99.90;;;;;;5072272;28;20405;-92
2022/07/24 04:33:22;;;;;;;9.63;6.47;;;16.80;99.90;;;;;;5089452;28;20044;-91
2022/07/24 04:35:47;;;;;;;9.60;6.40;;;16.80;99.90;;;;;;5072361;28;20417;-92
2022/07/24 04:38:13;;;;;;;9.13;6.47;;;16.80;99.90;;;;;;5089626;28;20127;-92
2022/07/24 04:40:39;;;;;;;10.32;7.13;;;16.80;99.90;;;;;;5072886;28;20080;-91
2022/07/24 04:43:04;;;;;;;9.70;6.75;;;16.80;99.90;;;;;;5072020;28;20370;-91
2022/07/24 04:45:30;;;;;;;9.60;7.03;;;16.80;99.90;;;;;;5090683;28;20501;-91
2022/07/24 04:47:56;;;;;;;10.10;7.15;;;16.80;99.90;;;;;;5093431;28;20035;-91
2022/07/24 04:50:21;;;;;;;9.27;6.65;;;16.90;99.90;;;;;;5077069;28;20052;-91
2022/07/24 04:52:47;;;;;;;10.15;7.30;;;16.90;99.90;;;;;;5093673;28;20169;-91
2022/07/24 04:55:13;;;;;;;9.63;6.22;;;16.90;99.90;;;;;;5093059;28;20032;-91
2022/07/24 04:57:39;;;;;;;9.52;6.88;;;16.90;99.90;;;;;;5093897;28;20043;-91
2022/07/24 05:00:07;;;;;;;9.73;6.78;;;16.90;99.90;;;;;;5093655;28;20028;-92
2022/07/24 05:02:32;;;;;;;9.95;7.05;;;16.90;99.90;;;;;;5092615;28;20081;-91
2022/07/24 05:04:58;;;;;;;9.75;6.60;;;16.90;99.90;;;;;;5093641;28;20047;-92
2022/07/24 05:07:24;;;;;;;10.52;6.57;;;17.00;99.90;;;;;;5076289;28;20404;-92
2022/07/24 05:09:49;;;;;;;9.10;6.68;;;17.00;99.90;;;;;;5092747;28;20092;-92
2022/07/24 05:12:15;;;;;;;9.73;7.28;;;17.10;99.90;;;;;;5093353;28;20071;-92
2022/07/24 05:14:40;;;;;;;9.50;6.78;;;17.10;99.90;;;;;;5092444;28;20036;-91
2022/07/24 05:17:06;;;;;;;10.18;7.10;;;17.10;99.90;;;;;;5093305;28;20048;-91
2022/07/24 05:19:31;;;;;;;9.77;6.82;;;17.10;99.90;;;;;;5092854;28;20046;-90
2022/07/24 05:21:57;;;;;;;8.88;6.97;;;17.10;99.90;;;;;;5092279;28;20044;-90
2022/07/24 05:24:24;;;;;;;9.32;7.03;;;17.20;99.90;;;;;;5093291;28;20059;-91
2022/07/24 05:26:50;;;;;;;10.20;7.20;;;17.20;99.90;;;;;;5093446;28;20119;-91
2022/07/24 05:29:16;;;;;;;10.02;7.30;;;17.20;99.90;;;;;;5092500;28;20179;-90
2022/07/24 05:31:42;;;;;;;8.70;6.88;;;17.30;99.90;;;;;;5093539;28;20592;-91
2022/07/24 05:34:08;;;;;;;9.18;7.00;;;17.30;99.90;;;;;;5091664;28;20536;-91
2022/07/24 05:36:34;;;;;;;11.38;7.80;;;17.30;99.90;;;;;;5076191;28;20100;-92
2022/07/24 05:38:59;;;;;;;10.70;7.75;;;17.40;99.90;;;;;;5075426;28;20131;-92
2022/07/24 05:41:25;;;;;;;10.20;7.07;;;17.50;99.90;;;;;;5092665;28;20036;-91
2022/07/24 05:43:50;;;;;;;10.82;8.15;;;17.50;99.90;;;;;;5075177;28;20039;-91
2022/07/24 05:46:16;;;;;;;11.65;8.05;;;17.60;99.90;;;;;;5075407;28;20033;-92
2022/07/24 05:48:41;;;;;;;11.60;8.43;;;17.60;99.90;;;;;;5092984;28;20093;-92
2022/07/24 05:51:07;;;;;;;12.40;8.50;;;17.60;99.90;;;;;;5092206;28;20039;-91
2022/07/24 05:53:32;;;;;;;10.40;8.10;;;17.70;99.90;;;;;;5092490;28;20101;-91
2022/07/24 05:55:58;;;;;;;11.25;8.27;;;17.80;99.90;;;;;;5075011;28;20035;-92
2022/07/24 05:58:24;;;;;;;11.95;8.68;;;17.90;99.90;;;;;;5091645;28;20097;-92
2022/07/24 06:00:49;;;;;;;11.68;9.25;;;17.90;99.90;;;;;;5092383;28;20468;-92
2022/07/24 06:03:15;;;;;;;11.63;9.20;;;18.00;99.90;;;;;;5075198;28;20040;-92
2022/07/24 06:05:41;;;;;;;13.23;9.40;;;18.00;99.90;;;;;;5075488;28;20489;-91
2022/07/24 06:08:08;;;;;;;13.05;10.43;;;18.10;99.90;;;;;;5091319;28;20039;-92
2022/07/24 06:10:34;;;;;;;12.75;10.15;;;18.20;99.90;;;;;;5075435;28;20028;-91
2022/07/24 06:12:59;;;;;;;13.73;10.10;;;18.30;99.90;;;;;;5091645;28;20032;-92
2022/07/24 06:15:25;;;;;;;13.50;10.88;;;18.30;99.90;;;;;;5091614;28;20043;-92
2022/07/24 06:17:51;;;;;;;14.32;10.70;;;18.40;99.90;;;;;;5092698;28;20071;-91
2022/07/24 06:20:16;;;;;;;12.60;10.52;;;18.50;99.90;;;;;;5091137;28;20447;-92
2022/07/24 06:22:44;;;;;;;15.07;11.60;;;18.60;99.90;;;;;;5091770;28;20044;-92
2022/07/24 06:25:10;;;;;;;14.07;11.43;;;18.80;99.90;;;;;;5091525;28;20413;-92
2022/07/24 06:27:43;;;;;;;14.40;11.85;;;18.80;99.90;;;;;;5091979;28;20036;-92
2022/07/24 06:30:13;;;;;;;14.10;12.07;;;18.90;99.90;;;;;;5092000;28;20486;-92
2022/07/24 06:32:39;;;;;;;14.63;12.38;;;19.00;99.90;;;;;;5091123;28;20502;-92
2022/07/24 06:35:05;;;;;;;14.35;12.43;;;19.10;99.90;;;;;;5092431;28;20031;-92
2022/07/24 06:37:30;;;;;;;15.93;12.75;;;19.30;99.90;;;;;;5122643;28;20048;-92
2022/07/24 06:40:20;;;;;;;14.10;12.13;;;19.40;99.90;;;;;;5102020;28;20375;-92
2022/07/24 06:42:47;;;;;;;14.68;12.52;;;19.50;99.90;;;;;;5012849;28;20137;-92
2022/07/24 06:45:14;;;;;;;14.60;12.43;;;19.50;99.90;;;;;;5010418;28;20093;-92
2022/07/24 06:47:40;;;;;;;15.65;13.52;;;19.60;99.90;;;;;;5017365;28;20038;-93
2022/07/24 06:50:06;;;;;;;16.77;13.90;;;19.70;99.90;;;;;;4989222;28;20034;-92
2022/07/24 06:52:31;;;;;;;15.50;13.40;;;19.80;99.90;;;;;;5002028;28;20048;-92
2022/07/24 06:54:57;;;;;;;15.00;13.40;;;19.90;99.90;;;;;;4995465;28;20148;-92
2022/07/24 06:57:25;;;;;;;15.85;13.40;;;19.90;99.90;;;;;;4978783;28;20534;-93
2022/07/24 06:59:52;;;;;;;16.83;14.27;;;19.90;99.90;;;;;;4994264;28;20056;-92
2022/07/24 07:02:18;;;;;;;17.13;14.65;;;20.00;99.90;;;;;;4994291;28;20046;-92
2022/07/24 07:04:44;;;;;;;16.30;14.57;;;20.10;99.90;;;;;;4993640;28;20073;-92
2022/07/24 07:07:10;;;;;;;17.48;15.10;;;20.20;99.90;;;;;;4994343;28;20471;-92
2022/07/24 07:09:36;;;;;;;16.00;14.30;;;20.20;99.90;;;;;;5009413;28;20043;-91
2022/07/24 07:12:03;;;;;;;16.83;14.98;;;20.20;99.90;;;;;;4990912;28;20034;-92
2022/07/24 07:14:29;;;;;;;16.55;13.82;;;20.30;99.90;;;;;;4996518;28;20046;-93
2022/07/24 07:16:54;;;;;;;18.80;15.63;;;20.30;99.90;;;;;;5009841;28;20060;-92
2022/07/24 07:19:20;;;;;;;16.98;15.18;;;20.40;99.90;;;;;;5022528;28;20134;-93
2022/07/24 07:21:46;;;;;;;18.48;16.48;;;20.50;99.90;;;;;;5091806;28;20036;-93
2022/07/24 07:24:11;;;;;;;20.23;15.32;;;20.60;99.90;;;;;;5090884;28;20044;-93
2022/07/24 07:26:37;;;;;;;18.27;16.30;;;20.70;99.90;;;;;;5074161;28;20040;-92
2022/07/24 07:29:02;;;;;;;17.98;16.17;;;20.70;99.90;;;;;;5090922;28;20553;-92
2022/07/24 07:31:28;;;;;;;17.15;15.32;;;20.70;99.90;;;;;;5108047;28;20048;-92
2022/07/24 07:33:54;;;;;;;17.95;16.05;;;20.80;99.90;;;;;;5090391;28;20055;-92
2022/07/24 07:36:19;;;;;;;17.17;15.40;;;20.90;99.90;;;;;;5108175;28;20486;-93
2022/07/24 07:38:45;;;;;;;18.83;16.20;;;20.90;99.90;;;;;;5107457;28;20456;-93
2022/07/24 07:41:11;;;;;;;18.67;15.30;;;21.00;99.90;;;;;;5090724;28;20039;-92
2022/07/24 07:43:37;;;;;;;16.88;15.18;;;21.10;99.90;;;;;;5073355;28;20036;-92
2022/07/24 07:46:04;;;;;;;19.23;15.52;;;21.10;99.90;;;;;;5090128;28;20078;-92
2022/07/24 07:48:30;;;;;;;17.45;15.50;;;21.20;99.90;;;;;;5090986;28;20497;-91
2022/07/24 07:50:56;;;;;;;18.75;15.75;;;21.30;99.90;;;;;;5072825;28;20036;-92
2022/07/24 07:53:21;;;;;;;19.08;14.75;;;21.40;99.90;;;;;;5090317;28;20044;-92
2022/07/24 07:55:51;;;;;;;17.63;15.80;;;21.50;99.90;;;;;;5089948;28;20027;-91
2022/07/24 07:58:17;;;;;;;19.38;16.42;;;21.50;99.90;;;;;;5090739;28;20490;-92
2022/07/24 08:00:42;;;;;;;18.58;16.58;;;21.60;99.90;;;;;;5090210;28;20100;-92
2022/07/24 08:03:08;;;;;;;18.73;15.90;;;21.70;99.90;;;;;;5089480;28;20036;-92
2022/07/24 08:05:34;;;;;;;19.25;16.45;;;21.80;99.90;;;;;;5090418;28;20036;-92
2022/07/24 08:07:59;;;;;;;19.85;16.48;;;21.80;99.90;;;;;;5088851;28;20097;-93
2022/07/24 08:10:25;;;;;;;20.27;15.80;;;21.90;99.90;;;;;;5106874;28;20118;-92
2022/07/24 08:12:51;;;;;;;18.80;16.90;;;22.00;99.90;;;;;;5072351;28;20497;-93
2022/07/24 08:15:17;;;;;;;18.42;15.52;;;22.00;99.90;;;;;;5090225;28;20494;-93
2022/07/24 08:17:43;;;;;;;19.38;16.02;;;22.10;99.90;;;;;;5073669;28;20096;-92
2022/07/24 08:20:09;;;;;;;20.15;17.35;;;22.20;99.90;;;;;;5090399;28;20039;-92
2022/07/24 08:22:35;;;;;;;19.10;15.80;;;22.20;99.90;;;;;;5089831;28;20127;-92
2022/07/24 08:25:00;;;;;;;18.98;16.85;;;22.30;99.90;;;;;;5089913;28;20115;-93
2022/07/24 08:27:26;;;;;;;17.52;14.63;;;22.40;99.90;;;;;;5089720;28;20554;-92
2022/07/24 08:29:52;;;;;;;16.17;13.65;;;22.50;99.90;;;;;;5090388;28;20032;-92
2022/07/24 08:32:18;;;;;;;15.63;11.25;;;22.50;99.90;;;;;;5072846;28;20487;-93
2022/07/24 08:34:44;;;;;;;13.85;11.05;;;22.60;99.90;;;;;;5091345;28;20047;-93
2022/07/24 08:37:09;;;;;;;12.30;9.98;;;22.60;99.90;;;;;;5089897;28;20421;-92
2022/07/24 08:39:35;;;;;;;14.25;10.13;;;22.70;99.90;;;;;;5089817;28;20032;-93
2022/07/24 08:42:00;;;;;;;13.77;9.57;;;22.70;99.90;;;;;;5090080;28;20043;-92
2022/07/24 08:44:26;;;;;;;12.48;9.82;;;22.80;99.90;;;;;;5088790;28;20047;-92
2022/07/24 08:46:53;;;;;;;13.23;8.65;;;22.80;99.90;;;;;;5090346;28;20032;-92
2022/07/24 08:49:21;;;;;;;13.13;8.60;;;22.90;99.90;;;;;;5073021;28;20028;-93
2022/07/24 08:51:49;;;;;;;12.70;9.00;;;23.00;99.90;;;;;;5089533;28;20033;-93
2022/07/24 08:54:14;;;;;;;12.18;8.30;;;23.10;99.90;;;;;;5089528;28;20124;-93
2022/07/24 08:56:41;;;;;;;10.57;6.97;;;23.20;99.90;;;;;;5090110;28;20040;-92
2022/07/24 08:59:21;;;;;;;10.30;6.72;;;23.20;99.90;;;;;;5089264;28;20036;-93
2022/07/24 09:01:48;;;;;;;9.90;6.07;;;23.30;99.90;;;;;;5090152;28;20043;-92
2022/07/24 09:04:33;;;;;;;10.73;5.95;;;23.30;99.90;;;;;;5080616;28;20036;-92
2022/07/24 09:07:00;;;;;;;10.02;6.13;;;23.30;99.90;;;;;;5089600;28;20037;-93
2022/07/24 09:09:26;;;;;;;10.35;5.47;;;23.30;99.90;;;;;;5088814;28;20489;-93
2022/07/24 09:12:09;;;;;;;9.20;4.50;;;23.30;99.90;;;;;;5089835;28;20082;-93
2022/07/24 09:14:38;;;;;;;9.18;5.10;;;23.40;99.90;;;;;;5071996;28;20093;-93
2022/07/24 09:17:10;;;;;;;8.15;4.53;;;23.50;99.90;;;;;;5072972;28;20093;-93
2022/07/24 09:19:56;;;;;;;7.27;4.43;;;23.60;99.90;;;;;;5088798;28;20083;-92
2022/07/24 09:22:31;;;;;;;8.52;3.78;;;23.70;99.90;;;;;;5084389;28;20505;-93
2022/07/24 09:25:08;;;;;;;7.65;3.85;;;23.80;99.90;;;;;;5068480;28;20133;-93
2022/07/24 09:27:35;;;;;;;8.98;3.60;;;23.70;99.50;;;;;;5105558;28;20043;-92
2022/07/24 09:30:01;;;;;;;8.38;4.00;;;23.80;99.90;;;;;;5088181;28;20119;-93
2022/07/24 09:32:27;;;;;;;6.10;3.22;;;23.80;98.50;;;;;;5089510;28;20124;-93
2022/07/24 09:34:53;;;;;;;7.93;3.40;;;23.90;99.20;;;;;;5075544;28;20867;-93
2022/07/24 09:37:20;;;;;;;7.18;3.90;;;24.00;97.80;;;;;;5093379;28;20435;-93
2022/07/24 09:39:46;;;;;;;7.45;4.05;;;24.00;98.30;;;;;;5092261;28;20051;-93
2022/07/24 09:42:13;;;;;;;7.47;3.60;;;24.10;99.90;;;;;;5076370;28;20036;-92
2022/07/24 09:44:39;;;;;;;7.10;3.70;;;24.10;98.40;;;;;;5094254;28;20039;-92
2022/07/24 09:47:07;;;;;;;7.00;3.70;;;24.20;99.60;;;;;;5092177;28;20406;-92
2022/07/24 09:49:34;;;;;;;7.90;3.33;;;24.30;99.90;;;;;;5092859;28;20045;-93
2022/07/24 09:52:18;;;;;;;6.82;3.25;;;24.30;96.50;;;;;;5092183;28;20090;-92
2022/07/24 09:54:49;;;;;;;7.18;2.85;;;24.40;98.60;;;;;;5075478;28;20036;-92
2022/07/24 09:57:17;;;;;;;6.55;2.80;;;24.40;99.90;;;;;;5092386;28;20043;-92
2022/07/24 09:59:47;;;;;;;6.78;3.13;;;24.50;96.40;;;;;;5075850;28;20105;-92
2022/07/24 10:02:14;;;;;;;6.80;3.10;;;24.60;97.60;;;;;;5092805;28;20562;-93
2022/07/24 10:04:42;;;;;;;6.55;3.30;;;24.60;96.00;;;;;;5091708;28;20135;-93
2022/07/24 10:07:10;;;;;;;6.28;2.85;;;24.70;97.00;;;;;;5092185;28;20501;-92
2022/07/24 10:09:41;;;;;;;6.97;3.20;;;24.70;97.50;;;;;;5091886;28;20486;-92
2022/07/24 10:12:15;;;;;;;6.75;3.10;;;24.80;97.30;;;;;;5075611;28;20072;-93
2022/07/24 10:14:42;;;;;;;6.22;2.38;;;24.90;96.30;;;;;;5091561;28;20028;-93
2022/07/24 10:17:10;;;;;;;7.15;2.83;;;25.00;95.60;;;;;;5092324;28;20039;-93
2022/07/24 10:19:39;;;;;;;5.22;2.40;;;25.00;93.90;;;;;;5075537;28;20790;-91
2022/07/24 10:22:10;;;;;;;5.47;2.55;;;25.00;91.70;;;;;;5075076;28;20061;-92
2022/07/24 10:24:52;;;;;;;6.53;2.57;;;25.00;86.50;;;;;;5092106;28;20089;-92
2022/07/24 10:27:25;;;;;;;6.00;2.58;;;25.10;85.60;;;;;;5092347;28;20040;-93
2022/07/24 10:29:56;;;;;;;4.88;2.30;;;25.10;94.00;;;;;;5100232;28;20545;-92
2022/07/24 10:32:24;;;;;;;7.43;2.50;;;25.20;90.40;;;;;;5075509;28;20065;-93
2022/07/24 10:34:58;;;;;;;4.75;1.92;;;25.30;92.30;;;;;;5091400;28;20036;-93
2022/07/24 10:37:42;;;;;;;5.72;2.47;;;25.30;90.50;;;;;;5091612;28;20032;-93
2022/07/24 10:40:45;;;;;;;5.47;2.10;;;25.40;93.60;;;;;;5074543;28;20114;-92
2022/07/24 10:43:21;;;;;;;5.22;2.30;;;25.50;93.20;;;;;;5074673;28;20067;-92
2022/07/24 10:45:55;;;;;;;5.22;2.40;;;25.50;92.10;;;;;;5091511;28;20036;-93
2022/07/24 10:48:21;;;;;;;4.30;2.17;;;25.40;89.00;;;;;;5074579;28;20067;-92
2022/07/24 10:51:00;;;;;;;5.25;2.42;;;25.50;93.60;;;;;;5074776;28;20068;-93
2022/07/24 10:53:29;;;;;;;5.03;2.35;;;25.50;88.40;;;;;;5090731;28;20408;-93
2022/07/24 10:56:13;;;;;;;5.68;2.20;;;25.50;89.20;;;;;;5091801;28;20052;-93
2022/07/24 10:58:53;;;;;;;6.80;2.72;;;25.60;90.20;;;;;;5091464;28;20075;-93
2022/07/24 11:01:50;;;;;;;5.70;2.40;;;25.60;93.10;;;;;;5091330;28;20047;-92
2022/07/24 11:04:19;;;;;;;6.80;2.58;;;25.70;93.50;;;;;;5074398;28;20558;-93
2022/07/24 11:06:48;;;;;;;5.35;2.60;;;25.70;92.50;;;;;;5090462;28;20535;-93
2022/07/24 11:09:15;;;;;;;5.00;2.35;;;25.80;90.40;;;;;;5092821;28;20090;-93
2022/07/24 11:12:06;;;;;;;3.92;2.05;;;26.00;89.80;;;;;;5091268;28;20064;-93
2022/07/24 11:14:38;;;;;;;5.15;2.35;;;26.10;86.10;;;;;;5079054;28;20052;-92
2022/07/24 11:17:38;;;;;;;5.63;2.55;;;26.20;84.10;;;;;;5074133;28;20048;-92
2022/07/24 11:20:13;;;;;;;5.68;2.50;;;26.30;86.90;;;;;;5090993;28;20446;-92
2022/07/24 11:22:41;;;;;;;6.00;2.35;;;26.40;83.00;;;;;;5091640;28;20090;-92
2022/07/24 11:25:10;;;;;;;5.68;2.58;;;26.30;83.70;;;;;;5090168;28;20036;-91
2022/07/24 11:28:07;;;;;;;7.25;2.70;;;26.20;85.90;;;;;;5091137;28;20032;-92
2022/07/24 11:30:33;;;;;;;5.80;2.50;;;26.10;84.50;;;;;;5070281;28;20110;-92
2022/07/24 11:32:59;;;;;;;5.97;2.60;;;26.10;83.00;;;;;;5091335;28;20048;-92
2022/07/24 11:35:33;;;;;;;5.07;2.60;;;26.10;83.90;;;;;;5089951;28;20046;-92
2022/07/24 11:38:00;;;;;;;6.70;2.70;;;26.20;82.70;;;;;;5091341;28;20075;-92
2022/07/24 11:40:26;;;;;;;5.63;2.80;;;26.20;89.60;;;;;;5087962;28;20077;-92
2022/07/24 11:42:57;;;;;;;7.05;2.67;;;26.30;85.00;;;;;;5081345;28;20123;-92
2022/07/24 11:45:23;;;;;;;5.75;2.42;;;26.40;90.30;;;;;;5096643;28;20390;-93
2022/07/24 11:47:48;;;;;;;6.32;2.70;;;26.60;82.30;;;;;;5086800;28;20047;-92
2022/07/24 11:50:14;;;;;;;5.45;2.50;;;26.60;78.00;;;;;;5089340;28;20047;-93
2022/07/24 11:52:41;;;;;;;6.32;2.70;;;26.60;79.90;;;;;;5107373;28;20036;-92
2022/07/24 11:55:14;;;;;;;5.70;2.60;;;26.60;76.00;;;;;;5089286;28;20082;-92
2022/07/24 11:57:41;;;;;;;5.80;2.65;;;26.60;74.10;;;;;;5090774;28;20119;-92
2022/07/24 12:00:13;;;;;;;6.18;2.80;;;26.80;80.50;;;;;;5089623;28;20047;-92
2022/07/24 12:02:51;;;;;;;6.28;2.55;;;26.80;75.50;;;;;;5090500;28;20039;-93
2022/07/24 12:05:38;;;;;;;6.35;2.92;;;26.90;73.50;;;;;;5089422;28;20090;-92
2022/07/24 12:08:21;;;;;;;6.00;2.78;;;27.00;76.80;;;;;;5090431;28;20048;-92
2022/07/24 12:10:49;;;;;;;5.75;2.58;;;27.10;75.50;;;;;;5089715;28;20581;-92
2022/07/24 12:13:16;;;;;;;5.22;2.50;;;27.10;71.90;;;;;;5090521;28;20409;-93
2022/07/24 12:15:42;;;;;;;6.50;2.80;;;27.10;69.90;;;;;;5089681;28;20047;-93
2022/07/24 12:18:09;;;;;;;7.93;2.97;;;27.10;71.50;;;;;;5089976;28;20036;-92
2022/07/24 12:20:43;;;;;;;6.45;3.00;;;27.10;70.80;;;;;;5089959;28;20082;-92
2022/07/24 12:23:14;;;;;;;6.60;3.00;;;27.20;69.70;;;;;;5086264;28;20052;-93
2022/07/24 12:25:41;;;;;;;6.60;2.90;;;27.30;73.50;;;;;;5104355;28;20037;-93
2022/07/24 12:28:18;;;;;;;6.45;2.85;;;27.30;73.90;;;;;;5076005;28;20039;-93
2022/07/24 12:30:54;;;;;;;6.60;2.70;;;27.40;75.60;;;;;;5090051;28;20443;-93
2022/07/24 12:33:23;;;;;;;6.15;3.03;;;27.50;75.50;;;;;;5090164;28;20044;-93
2022/07/24 12:35:58;;;;;;;9.35;3.25;;;27.50;70.40;;;;;;5089526;28;20040;-93
2022/07/24 12:38:32;;;;;;;6.57;2.70;;;27.60;71.70;;;;;;5090077;28;20567;-93
2022/07/24 12:41:02;;;;;;;7.07;2.63;;;27.70;68.40;;;;;;5087569;28;20047;-93
2022/07/24 12:43:28;;;;;;;7.63;3.00;;;27.70;72.20;;;;;;5078974;28;20082;-93